Time;durP1;ratioP1;P1;durP2;ratioP2;P2;SDS_P1;SDS_P2;PMS_P1;PMS_P2;Temp;Humidity;BMP_temperature;BMP_pressure;BME280_temperature;BME280_humidity;BME280_pressure;Samples;Min_cycle;Max_cycle;Signal;HPM_P1;HPM_P2
2023/07/10 03:22:19;;;;;;;;;;;23.60;99.90;;;;;;4590082;19;19923;-31
2023/07/10 03:23:53;;;;;;;;;;;23.60;99.90;;;;;;4593531;19;19914;-30
2023/07/10 03:25:23;;;;;;;;;;;23.60;99.90;;;;;;4594252;19;19921;-26
2023/07/10 03:26:55;;;;;;;;;;;23.60;99.90;;;;;;4593479;19;19978;-25
2023/07/10 03:28:27;;;;;;;;;;;23.70;99.90;;;;;;4594178;19;20333;-27
2023/07/10 03:30:00;;;;;;;;;;;23.70;99.90;;;;;;4594735;19;19925;-30
2023/07/10 03:31:31;;;;;;;;;;;23.70;99.90;;;;;;4596724;19;19915;-28
2023/07/10 03:33:02;;;;;;;;;;;23.70;99.90;;;;;;4594252;19;19923;-27
2023/07/10 03:34:33;;;;;;;;;;;23.70;99.90;;;;;;4594526;19;19922;-26
2023/07/10 03:36:05;;;;;;;;;;;23.70;99.90;;;;;;4594978;19;19915;-28
2023/07/10 03:37:36;;;;;;;;;;;23.70;99.90;;;;;;4592861;19;19925;-26
2023/07/10 03:39:07;;;;;;;;;;;23.80;99.90;;;;;;4593694;19;19931;-25
2023/07/10 03:40:38;;;;;;;;;;;23.90;99.90;;;;;;4594110;19;20007;-30
2023/07/10 03:42:10;;;;;;;;;;;24.00;99.90;;;;;;4592804;19;19915;-25
2023/07/10 03:43:41;;;;;;;;;;;24.00;99.90;;;;;;4593459;19;19907;-27
2023/07/10 03:45:11;;;;;;;;;;;24.10;99.90;;;;;;4593500;19;19910;-28
2023/07/10 03:46:43;;;;;;;;;;;24.20;99.90;;;;;;4593580;19;19954;-26
2023/07/10 03:48:14;;;;;;;;;;;24.20;99.90;;;;;;4594425;19;19914;-25
2023/07/10 03:49:45;;;;;;;;;;;24.30;99.90;;;;;;4593847;19;19911;-25
2023/07/10 03:51:16;;;;;;;;;;;24.40;99.90;;;;;;4594054;19;19926;-25
2023/07/10 03:52:47;;;;;;;;;;;24.40;99.90;;;;;;4595443;19;19911;-25
2023/07/10 03:54:18;;;;;;;;;;;24.40;99.90;;;;;;4595262;19;19938;-29
2023/07/10 03:55:52;;;;;;;;;;;24.40;99.90;;;;;;4593631;19;19918;-25
2023/07/10 03:57:26;;;;;;;;;;;24.40;99.90;;;;;;4592758;19;19923;-27
2023/07/10 03:58:57;;;;;;;;;;;24.30;99.90;;;;;;4593583;19;19921;-26
2023/07/10 04:00:29;;;;;;;;;;;24.30;99.90;;;;;;4592307;19;19919;-29
2023/07/10 04:02:00;;;;;;;;;;;24.30;99.90;;;;;;4593168;19;19915;-26
2023/07/10 04:03:33;;;;;;;;;;;24.20;99.90;;;;;;4593989;19;20264;-26
2023/07/10 04:05:05;;;;;;;;;;;24.20;99.90;;;;;;4592606;19;19935;-29
2023/07/10 04:06:35;;;;;;;;;;;24.10;99.90;;;;;;4592588;19;19914;-25
2023/07/10 04:08:08;;;;;;;;;;;24.10;99.90;;;;;;4593360;19;20257;-29
2023/07/10 04:09:41;;;;;;;;;;;24.00;99.90;;;;;;4592976;19;20328;-30
2023/07/10 04:11:14;;;;;;;;;;;24.00;99.90;;;;;;4592705;19;19978;-25
2023/07/10 04:12:45;;;;;;;;;;;23.90;99.90;;;;;;4592231;19;20329;-25
2023/07/10 04:14:19;;;;;;;;;;;23.90;99.90;;;;;;4592237;19;19915;-29
2023/07/10 04:16:05;;;;;;;;;;;23.90;99.90;;;;;;4592845;19;19910;-25
2023/07/10 04:17:36;;;;;;;;;;;23.80;99.90;;;;;;4593369;19;19925;-26
2023/07/10 04:19:07;;;;;;;;;;;23.80;99.90;;;;;;4589354;19;19921;-26
2023/07/10 04:20:38;;;;;;;;;;;23.70;99.90;;;;;;4592557;19;19923;-28
2023/07/10 04:22:09;;;;;;;;;;;23.70;99.90;;;;;;4592328;19;19978;-25
2023/07/10 04:23:41;;;;;;;;;;;23.70;99.90;;;;;;4592597;19;19918;-31
2023/07/10 04:25:14;;;;;;;;;;;23.70;99.90;;;;;;4592472;19;20333;-25
2023/07/10 04:26:45;;;;;;;;;;;23.70;99.90;;;;;;4591450;19;19918;-28
2023/07/10 04:28:16;;;;;;;;;;;23.70;99.90;;;;;;4592509;19;19926;-25
2023/07/10 04:29:48;;;;;;;;;;;23.60;99.90;;;;;;4593554;19;19922;-25
2023/07/10 04:31:19;;;;;;;;;;;23.60;99.90;;;;;;4591566;19;19994;-26
2023/07/10 04:32:50;;;;;;;;;;;23.60;99.90;;;;;;4591734;19;19982;-28
2023/07/10 04:34:21;;;;;;;;;;;23.50;99.90;;;;;;4592718;19;19918;-25
2023/07/10 04:35:55;;;;;;;;;;;23.50;99.90;;;;;;4591706;19;19919;-27
2023/07/10 04:37:27;;;;;;;;;;;23.60;99.90;;;;;;4591780;19;20268;-29
2023/07/10 04:38:58;;;;;;;;;;;23.60;99.90;;;;;;4592435;19;19919;-25
2023/07/10 04:40:29;;;;;;;;;;;23.70;99.90;;;;;;4591918;19;20292;-27
2023/07/10 04:42:00;;;;;;;;;;;23.80;99.90;;;;;;4591341;19;19929;-26
2023/07/10 04:43:34;;;;;;;;;;;23.90;99.90;;;;;;4592632;19;19910;-25
2023/07/10 04:45:05;;;;;;;;;;;24.00;99.90;;;;;;4591790;19;19934;-30
2023/07/10 04:46:38;;;;;;;;;;;24.10;99.90;;;;;;4592438;19;19914;-25
2023/07/10 04:48:09;;;;;;;;;;;24.30;99.90;;;;;;4592422;19;19942;-28
2023/07/10 04:49:40;;;;;;;;;;;24.40;99.90;;;;;;4592827;19;20241;-26
2023/07/10 04:51:11;;;;;;;;;;;24.40;99.90;;;;;;4592686;19;19930;-29
2023/07/10 04:52:42;;;;;;;;;;;24.50;99.90;;;;;;4591084;19;19938;-26
2023/07/10 04:54:16;;;;;;;;;;;24.60;99.90;;;;;;4591746;19;19919;-26
2023/07/10 04:55:48;;;;;;;;;;;24.70;99.90;;;;;;4592349;19;19985;-32
2023/07/10 04:57:19;;;;;;;;;;;24.80;99.90;;;;;;4591916;19;20298;-27
2023/07/10 04:58:53;;;;;;;;;;;24.80;99.90;;;;;;4591958;19;19918;-26
2023/07/10 05:00:26;;;;;;;;;;;24.90;99.90;;;;;;4592628;19;19952;-26
2023/07/10 05:01:57;;;;;;;;;;;25.00;99.90;;;;;;4591656;19;19918;-28
2023/07/10 05:03:32;;;;;;;;;;;25.00;99.90;;;;;;4591659;19;19915;-26
2023/07/10 05:05:04;;;;;;;;;;;25.10;99.90;;;;;;4591909;19;19918;-25
2023/07/10 05:06:37;;;;;;;;;;;25.20;99.90;;;;;;4592098;19;20262;-27
2023/07/10 05:08:08;;;;;;;;;;;25.20;99.90;;;;;;4563487;19;19925;-25
2023/07/10 05:09:40;;;;;;;;;;;25.30;99.90;;;;;;4591810;19;20260;-26
2023/07/10 05:11:11;;;;;;;;;;;25.30;99.90;;;;;;4590935;19;19923;-25
2023/07/10 05:12:42;;;;;;;;;;;25.30;99.90;;;;;;4591218;19;20350;-25
2023/07/10 05:14:13;;;;;;;;;;;25.30;99.90;;;;;;4592091;19;19930;-25
2023/07/10 05:15:45;;;;;;;;;;;25.30;99.90;;;;;;4591412;19;19927;-25
2023/07/10 05:17:16;;;;;;;;;;;25.30;99.90;;;;;;4590689;19;19919;-24
2023/07/10 05:18:48;;;;;;;;;;;25.20;99.90;;;;;;4591881;19;19922;-25
2023/07/10 05:20:19;;;;;;;;;;;25.10;99.90;;;;;;4592378;19;19914;-25
2023/07/10 05:21:51;;;;;;;;;;;25.10;99.90;;;;;;4591580;19;19922;-25
2023/07/10 05:23:23;;;;;;;;;;;25.00;99.90;;;;;;4591641;19;19922;-26
2023/07/10 05:24:53;;;;;;;;;;;25.00;99.90;;;;;;4591910;19;19929;-25
2023/07/10 05:26:25;;;;;;;;;;;25.00;99.90;;;;;;4592456;19;20377;-25
2023/07/10 05:27:58;;;;;;;;;;;24.90;99.90;;;;;;4589392;19;20256;-30
2023/07/10 05:29:29;;;;;;;;;;;24.90;99.90;;;;;;4590722;19;19911;-29
2023/07/10 05:31:00;;;;;;;;;;;24.90;99.90;;;;;;4591172;19;19915;-27
2023/07/10 05:32:31;;;;;;;;;;;24.80;99.90;;;;;;4591349;19;19919;-25
2023/07/10 05:35:52;;;;;;;;;;;24.70;99.90;;;;;;4591053;19;19942;-25
2023/07/10 05:37:26;;;;;;;;;;;24.70;99.90;;;;;;4591875;19;19923;-25
2023/07/10 05:38:57;;;;;;;;;;;24.60;99.90;;;;;;4592488;19;19925;-25
2023/07/10 05:40:28;;;;;;;;;;;24.60;99.90;;;;;;4591343;19;19923;-26
2023/07/10 05:41:59;;;;;;;;;;;24.60;99.90;;;;;;4590372;19;19938;-29
2023/07/10 05:43:30;;;;;;;;;;;24.60;99.90;;;;;;4590097;19;19922;-26
2023/07/10 05:45:01;;;;;;;;;;;24.60;99.90;;;;;;4591146;19;19922;-25
2023/07/10 05:46:33;;;;;;;;;;;24.60;99.90;;;;;;4589871;19;19949;-28
2023/07/10 05:48:05;;;;;;;;;;;24.60;99.90;;;;;;4590103;19;20384;-25
2023/07/10 05:49:36;;;;;;;;;;;24.60;99.90;;;;;;4590246;19;19925;-25
2023/07/10 05:51:07;;;;;;;;;;;24.70;99.90;;;;;;4591024;19;19919;-25
2023/07/10 05:52:40;;;;;;;;;;;24.70;99.90;;;;;;4588996;19;19925;-25
2023/07/10 05:54:11;;;;;;;;;;;24.80;99.90;;;;;;4591574;19;19915;-25
2023/07/10 05:55:46;;;;;;;;;;;24.80;99.90;;;;;;4591840;19;20252;-25
2023/07/10 05:57:17;;;;;;;;;;;24.80;99.90;;;;;;4590585;19;19926;-27
2023/07/10 05:58:48;;;;;;;;;;;24.80;99.90;;;;;;4590163;19;19925;-25
2023/07/10 06:00:19;;;;;;;;;;;24.80;99.90;;;;;;4590508;19;19918;-29
2023/07/10 06:01:50;;;;;;;;;;;24.80;99.90;;;;;;4590463;19;19925;-26
2023/07/10 06:03:21;;;;;;;;;;;24.80;99.90;;;;;;4590032;19;20303;-26
2023/07/10 06:04:55;;;;;;;;;;;24.80;99.90;;;;;;4589960;19;19981;-25
2023/07/10 06:06:26;;;;;;;;;;;24.80;99.90;;;;;;4590414;19;19926;-28
2023/07/10 06:07:57;;;;;;;;;;;24.80;99.90;;;;;;4589248;19;19922;-25
2023/07/10 06:09:28;;;;;;;;;;;24.80;99.90;;;;;;4590649;19;19986;-25
2023/07/10 06:11:01;;;;;;;;;;;24.80;99.90;;;;;;4591041;19;19915;-28
2023/07/10 06:12:32;;;;;;;;;;;24.70;99.90;;;;;;4591536;19;19910;-27
2023/07/10 06:14:03;;;;;;;;;;;24.70;99.90;;;;;;4591523;19;19923;-28
2023/07/10 06:15:34;;;;;;;;;;;24.70;99.90;;;;;;4589845;19;19939;-25
2023/07/10 06:17:05;;;;;;;;;;;24.70;99.90;;;;;;4590731;19;19922;-25
2023/07/10 06:18:37;;;;;;;;;;;24.70;99.90;;;;;;4591760;19;19941;-25
2023/07/10 06:20:08;;;;;;;;;;;24.70;99.90;;;;;;4589848;19;19959;-28
2023/07/10 06:21:39;;;;;;;;;;;24.70;99.90;;;;;;4589786;19;19971;-26
2023/07/10 06:23:10;;;;;;;;;;;24.70;99.90;;;;;;4589382;19;19995;-29
2023/07/10 06:24:45;;;;;;;;;;;24.70;99.90;;;;;;4591411;19;19930;-25
2023/07/10 06:26:17;;;;;;;;;;;24.60;99.90;;;;;;4590537;19;20299;-25
2023/07/10 06:27:49;;;;;;;;;;;24.60;99.90;;;;;;4589606;19;19948;-25
2023/07/10 06:29:20;;;;;;;;;;;24.60;99.90;;;;;;4590473;19;20030;-25
2023/07/10 06:30:56;;;;;;;;;;;24.60;99.90;;;;;;4591375;19;19922;-25
2023/07/10 06:32:28;;;;;;;;;;;24.60;99.90;;;;;;4589608;19;20269;-25
2023/07/10 06:34:00;;;;;;;;;;;24.60;99.90;;;;;;4589287;19;19919;-25
2023/07/10 06:35:31;;;;;;;;;;;24.60;99.90;;;;;;4589418;19;19921;-25
2023/07/10 06:37:02;;;;;;;;;;;24.60;99.90;;;;;;4589520;19;19915;-28
2023/07/10 06:38:33;;;;;;;;;;;24.60;99.90;;;;;;4589046;19;19919;-25
2023/07/10 06:40:10;;;;;;;;;;;24.20;99.90;;;;;;4590363;19;19923;-25
2023/07/10 06:41:41;;;;;;;;;;;22.60;99.90;;;;;;4590306;19;20253;-26
2023/07/10 06:43:13;;;;;;;;;;;21.50;99.90;;;;;;4590979;19;19915;-25
2023/07/10 06:44:43;;;;;;;;;;;21.00;99.90;;;;;;4589299;19;19938;-25
2023/07/10 06:46:16;;;;;;;;;;;20.60;99.90;;;;;;4589025;19;19956;-29
2023/07/10 06:47:48;;;;;;;;;;;20.50;99.90;;;;;;4589145;19;19915;-24
2023/07/10 06:49:18;;;;;;;;;;;20.40;99.90;;;;;;4590209;19;19935;-27
2023/07/10 06:50:50;;;;;;;;;;;20.30;99.90;;;;;;4590217;19;19935;-24
2023/07/10 06:52:21;;;;;;;;;;;20.30;99.90;;;;;;4589201;19;19918;-24
2023/07/10 06:53:52;;;;;;;;;;;20.30;99.90;;;;;;4589320;19;19936;-25
2023/07/10 06:55:24;;;;;;;;;;;20.20;99.90;;;;;;4589948;19;19918;-24
2023/07/10 06:56:55;;;;;;;;;;;20.20;99.90;;;;;;4589177;19;20373;-25
2023/07/10 06:58:26;;;;;;;;;;;20.20;99.90;;;;;;4589404;19;19922;-27
2023/07/10 06:59:57;;;;;;;;;;;20.30;99.90;;;;;;4589467;19;19925;-24
2023/07/10 07:01:28;;;;;;;;;;;20.30;99.90;;;;;;4589011;19;19912;-27
2023/07/10 07:02:59;;;;;;;;;;;20.30;99.90;;;;;;4590109;19;19978;-24
2023/07/10 07:04:30;;;;;;;;;;;20.30;99.90;;;;;;4595012;19;20327;-23
2023/07/10 07:06:04;;;;;;;;;;;20.30;99.90;;;;;;4594639;19;20321;-28
2023/07/10 07:07:36;;;;;;;;;;;20.30;99.90;;;;;;4593562;19;20368;-28
2023/07/10 07:09:07;;;;;;;;;;;20.30;99.90;;;;;;4593771;19;20248;-25
2023/07/10 07:10:41;;;;;;;;;;;20.30;99.90;;;;;;4594215;19;19919;-28
2023/07/10 07:12:12;;;;;;;;;;;20.40;99.90;;;;;;4593407;19;19922;-27
2023/07/10 07:13:44;;;;;;;;;;;20.30;99.90;;;;;;4594042;19;19919;-24
2023/07/10 07:15:15;;;;;;;;;;;20.40;99.90;;;;;;4594947;19;20263;-25
2023/07/10 07:16:46;;;;;;;;;;;20.40;99.90;;;;;;4593685;19;19919;-24
2023/07/10 07:18:17;;;;;;;;;;;20.40;99.90;;;;;;4593291;19;19919;-24
2023/07/10 07:19:50;;;;;;;;;;;20.40;99.90;;;;;;4594074;19;19911;-24
2023/07/10 07:21:21;;;;;;;;;;;20.50;99.90;;;;;;4593507;19;20311;-24
2023/07/10 07:29:10;;;;;;;;;;;20.50;99.90;;;;;;4592733;19;20314;-29
2023/07/10 07:30:47;;;;;;;;;;;20.50;99.90;;;;;;4593496;19;19925;-26
2023/07/10 07:32:18;;;;;;;;;;;20.50;99.90;;;;;;4593834;19;19919;-23
2023/07/10 07:33:50;;;;;;;;;;;20.50;99.90;;;;;;4594003;19;19919;-25
2023/07/10 07:35:22;;;;;;;;;;;20.50;99.90;;;;;;4593575;19;19922;-24
2023/07/10 07:36:53;;;;;;;;;;;20.60;99.90;;;;;;4593704;19;19915;-28
2023/07/10 07:38:24;;;;;;;;;;;20.50;99.90;;;;;;4594047;19;19925;-24
2023/07/10 07:39:58;;;;;;;;;;;20.50;99.90;;;;;;4592620;19;19942;-25
2023/07/10 07:41:31;;;;;;;;;;;20.60;99.90;;;;;;4593393;19;20229;-24
2023/07/10 07:43:02;;;;;;;;;;;20.60;99.90;;;;;;4592318;19;20226;-26
2023/07/10 07:44:34;;;;;;;;;;;20.60;99.90;;;;;;4593281;19;19970;-28
2023/07/10 07:46:05;;;;;;;;;;;20.60;99.90;;;;;;4594683;19;19975;-28
2023/07/10 07:47:36;;;;;;;;;;;20.60;99.90;;;;;;4592138;19;19918;-27
2023/07/10 07:49:07;;;;;;;;;;;20.60;99.90;;;;;;4592337;19;20349;-28
2023/07/10 07:50:38;;;;;;;;;;;20.60;99.90;;;;;;4593075;19;19919;-24
2023/07/10 07:52:09;;;;;;;;;;;20.60;99.90;;;;;;4592476;19;19907;-25
2023/07/10 07:53:41;;;;;;;;;;;20.60;99.90;;;;;;4591926;19;19922;-24
2023/07/10 07:55:15;;;;;;;;;;;20.60;99.90;;;;;;4591213;19;19917;-24
2023/07/10 07:56:46;;;;;;;;;;;20.70;99.90;;;;;;4593201;19;19978;-24
2023/07/10 07:58:17;;;;;;;;;;;20.70;99.90;;;;;;4592933;19;19998;-25
2023/07/10 07:59:51;;;;;;;;;;;20.70;99.90;;;;;;4592027;19;19914;-24
2023/07/10 08:01:24;;;;;;;;;;;20.70;99.90;;;;;;4592846;19;20261;-24
2023/07/10 08:02:57;;;;;;;;;;;20.70;99.90;;;;;;4591980;19;19915;-25
2023/07/10 08:04:28;;;;;;;;;;;20.70;99.90;;;;;;4592273;19;19951;-30
2023/07/10 08:06:00;;;;;;;;;;;20.70;99.90;;;;;;4593055;19;20325;-24
2023/07/10 08:07:32;;;;;;;;;;;20.70;99.90;;;;;;4591231;19;19918;-26
2023/07/10 08:09:03;;;;;;;;;;;20.70;99.90;;;;;;4592299;19;19918;-28
2023/07/10 08:10:34;;;;;;;;;;;20.70;99.90;;;;;;4592711;19;19929;-24
2023/07/10 08:12:06;;;;;;;;;;;20.70;99.90;;;;;;4592875;19;19923;-29
2023/07/10 08:13:37;;;;;;;;;;;20.70;99.90;;;;;;4592930;19;19937;-25
2023/07/10 08:15:09;;;;;;;;;;;20.80;99.90;;;;;;4590527;19;19922;-26
2023/07/10 08:16:41;;;;;;;;;;;20.80;99.90;;;;;;4592714;19;19970;-27
2023/07/10 08:18:12;;;;;;;;;;;20.80;99.90;;;;;;4593213;19;19918;-23
2023/07/10 08:19:43;;;;;;;;;;;20.80;99.90;;;;;;4592053;19;19915;-28
2023/07/10 08:21:15;;;;;;;;;;;20.80;99.90;;;;;;4593494;19;20120;-24
2023/07/10 08:22:46;;;;;;;;;;;20.80;99.90;;;;;;4591726;19;19925;-30
2023/07/10 08:24:17;;;;;;;;;;;20.80;99.90;;;;;;4592814;19;19915;-28
2023/07/10 08:25:48;;;;;;;;;;;20.80;99.90;;;;;;4591981;19;19922;-25
2023/07/10 08:27:19;;;;;;;;;;;20.80;99.90;;;;;;4593082;19;19940;-24
2023/07/10 08:28:50;;;;;;;;;;;20.80;99.90;;;;;;4592159;19;19951;-26
2023/07/10 08:30:21;;;;;;;;;;;20.90;99.90;;;;;;4592586;19;20293;-24
2023/07/10 08:31:54;;;;;;;;;;;20.90;99.90;;;;;;4593323;19;19914;-24
2023/07/10 08:33:25;;;;;;;;;;;20.90;99.90;;;;;;4590813;19;19923;-26
2023/07/10 08:34:57;;;;;;;;;;;20.90;99.90;;;;;;4590957;19;19923;-24
2023/07/10 08:36:28;;;;;;;;;;;20.90;99.90;;;;;;4595052;19;19962;-24
2023/07/10 08:37:59;;;;;;;;;;;20.90;99.90;;;;;;4593029;19;19970;-27
2023/07/10 08:39:30;;;;;;;;;;;20.90;99.90;;;;;;4592297;19;20336;-30
2023/07/10 08:41:16;;;;;;;;;;;20.90;99.90;;;;;;4591198;19;19919;-25
2023/07/10 08:42:47;;;;;;;;;;;20.90;99.90;;;;;;4591608;19;19933;-24
2023/07/10 08:44:18;;;;;;;;;;;20.90;99.90;;;;;;4592886;19;19944;-24
2023/07/10 08:45:49;;;;;;;;;;;20.90;99.90;;;;;;4591086;19;19926;-24
2023/07/10 08:47:31;;;;;;;;;;;21.00;99.90;;;;;;4590364;19;19914;-25
2023/07/10 08:49:28;;;;;;;;;;;21.00;99.90;;;;;;4591823;19;19942;-25
2023/07/10 08:51:23;;;;;;;;;;;21.00;99.90;;;;;;4591958;19;19907;-23
2023/07/10 08:53:05;;;;;;;;;;;21.00;99.90;;;;;;4590759;19;19978;-24
2023/07/10 08:55:03;;;;;;;;;;;21.00;99.90;;;;;;4591488;19;19914;-25
2023/07/10 08:57:21;;;;;;;;;;;21.00;99.90;;;;;;4591291;19;19911;-24
2023/07/10 08:59:28;;;;;;;;;;;21.00;99.90;;;;;;4589747;19;20010;-24
2023/07/10 09:01:10;;;;;;;;;;;21.10;99.90;;;;;;4590134;19;20038;-23
2023/07/10 09:03:15;;;;;;;;;;;21.10;99.90;;;;;;4589944;19;19967;-25
2023/07/10 09:05:52;;;;;;;;;;;21.10;99.90;;;;;;4566660;19;19947;-24
2023/07/10 09:08:03;;;;;;;;;;;21.10;99.90;;;;;;4588504;19;20354;-23
2023/07/10 09:10:20;;;;;;;;;;;21.10;99.90;;;;;;4587573;19;19910;-24
2023/07/10 09:12:08;;;;;;;;;;;21.20;99.90;;;;;;4588809;19;20351;-25
2023/07/10 09:13:42;;;;;;;;;;;21.20;99.90;;;;;;4588843;19;20263;-23
2023/07/10 09:15:42;;;;;;;;;;;21.20;99.90;;;;;;4589027;19;19922;-25
2023/07/10 09:17:59;;;;;;;;;;;21.20;99.90;;;;;;4589873;19;19974;-25
2023/07/10 09:19:59;;;;;;;;;;;21.20;99.90;;;;;;4589984;19;19949;-24
2023/07/10 09:21:39;;;;;;;;;;;21.20;99.90;;;;;;4589674;19;20025;-27
2023/07/10 09:23:25;;;;;;;;;;;21.20;99.90;;;;;;4587659;19;19919;-28
2023/07/10 09:25:21;;;;;;;;;;;21.30;99.90;;;;;;4589508;19;19978;-23
2023/07/10 09:29:24;;;;;;;;;;;21.30;99.90;;;;;;4581021;19;19922;-28
2023/07/10 09:30:56;;;;;;;;;;;21.30;99.90;;;;;;4592155;19;19911;-25
2023/07/10 09:32:29;;;;;;;;;;;21.30;99.90;;;;;;4591028;19;19930;-23
2023/07/10 09:34:00;;;;;;;;;;;21.40;99.90;;;;;;4590099;19;19915;-27
2023/07/10 09:35:36;;;;;;;;;;;21.40;99.90;;;;;;4589661;19;19933;-25
2023/07/10 09:37:10;;;;;;;;;;;21.40;99.90;;;;;;4592203;19;19925;-24
2023/07/10 09:38:44;;;;;;;;;;;21.40;99.90;;;;;;4591292;19;19922;-24
2023/07/10 09:40:19;;;;;;;;;;;21.40;99.90;;;;;;4589815;19;19922;-24
2023/07/10 09:41:50;;;;;;;;;;;21.40;99.90;;;;;;4591573;19;20316;-24
2023/07/10 09:43:23;;;;;;;;;;;21.40;99.90;;;;;;4591715;19;19974;-27
2023/07/10 09:44:54;;;;;;;;;;;21.40;99.90;;;;;;4589676;19;20320;-24
2023/07/10 09:46:44;;;;;;;;;;;21.40;99.90;;;;;;4590037;19;19966;-25
2023/07/10 09:48:15;;;;;;;;;;;21.40;99.90;;;;;;4589296;19;19945;-28
2023/07/10 09:49:52;;;;;;;;;;;21.40;99.90;;;;;;4590861;19;19928;-25
2023/07/10 09:51:25;;;;;;;;;;;21.40;99.90;;;;;;4590903;19;19943;-25
2023/07/10 09:52:56;;;;;;;;;;;21.40;99.90;;;;;;4589654;19;19978;-28
2023/07/10 09:54:37;;;;;;;;;;;21.40;99.90;;;;;;4590311;19;19937;-25
2023/07/10 09:56:11;;;;;;;;;;;21.50;99.90;;;;;;4590684;19;19914;-25
2023/07/10 09:57:55;;;;;;;;;;;21.50;99.90;;;;;;4589800;19;19949;-29
2023/07/10 09:59:27;;;;;;;;;;;21.50;99.90;;;;;;4589435;19;19945;-28
2023/07/10 10:01:00;;;;;;;;;;;21.50;99.90;;;;;;4589179;19;19915;-25
2023/07/10 10:02:39;;;;;;;;;;;21.50;99.90;;;;;;4589115;19;19931;-24
2023/07/10 10:04:11;;;;;;;;;;;21.60;99.90;;;;;;4589681;19;19923;-25
2023/07/10 10:05:42;;;;;;;;;;;21.60;99.90;;;;;;4589336;19;19907;-24
2023/07/10 10:07:15;;;;;;;;;;;21.60;99.90;;;;;;4589161;19;19982;-25
2023/07/10 10:08:47;;;;;;;;;;;21.60;99.90;;;;;;4589210;19;20251;-28
2023/07/10 10:10:44;;;;;;;;;;;21.60;99.90;;;;;;4590209;19;19921;-27
2023/07/10 10:12:15;;;;;;;;;;;21.60;99.90;;;;;;4590319;19;19919;-26
2023/07/10 10:13:47;;;;;;;;;;;21.60;99.90;;;;;;4590902;19;19929;-24
2023/07/10 10:15:22;;;;;;;;;;;21.60;99.90;;;;;;4590751;19;19910;-24
2023/07/10 10:16:54;;;;;;;;;;;21.60;99.90;;;;;;4591396;19;20331;-30
2023/07/10 10:18:29;;;;;;;;;;;21.60;99.90;;;;;;4591546;19;19923;-24
2023/07/10 10:20:20;;;;;;;;;;;21.60;99.90;;;;;;4590664;19;19915;-25
2023/07/10 10:21:51;;;;;;;;;;;21.70;99.90;;;;;;4588723;19;19923;-29
2023/07/10 10:23:32;;;;;;;;;;;21.70;99.90;;;;;;4588513;19;19919;-25
2023/07/10 10:25:11;;;;;;;;;;;21.70;99.90;;;;;;4589481;19;20313;-24
2023/07/10 10:26:53;;;;;;;;;;;21.70;99.90;;;;;;4588552;19;19938;-25
2023/07/10 10:28:41;;;;;;;;;;;21.60;99.90;;;;;;4586996;19;19929;-27
2023/07/10 10:30:19;;;;;;;;;;;21.70;99.90;;;;;;4588076;19;20280;-26
2023/07/10 10:31:55;;;;;;;;;;;21.70;99.90;;;;;;4588168;19;20337;-30
2023/07/10 10:33:27;;;;;;;;;;;21.70;99.90;;;;;;4588986;19;20352;-26
2023/07/10 10:35:05;;;;;;;;;;;21.70;99.90;;;;;;4588256;19;20351;-24
2023/07/10 10:36:48;;;;;;;;;;;21.70;99.90;;;;;;4588247;19;19927;-24
2023/07/10 10:38:20;;;;;;;;;;;21.70;99.90;;;;;;4589396;19;19911;-26
2023/07/10 10:39:52;;;;;;;;;;;21.70;99.90;;;;;;4593091;19;20276;-26
2023/07/10 10:41:26;;;;;;;;;;;21.70;99.90;;;;;;4593219;19;19914;-25
2023/07/10 10:43:00;;;;;;;;;;;21.70;99.90;;;;;;4592704;19;20328;-27
2023/07/10 10:44:34;;;;;;;;;;;21.70;99.90;;;;;;4592771;19;19922;-24
2023/07/10 10:46:08;;;;;;;;;;;21.80;99.90;;;;;;4593022;19;19921;-27
2023/07/10 10:47:48;;;;;;;;;;;21.80;99.90;;;;;;4592270;19;20353;-26
2023/07/10 10:49:39;;;;;;;;;;;21.70;99.90;;;;;;4592817;19;19911;-25
2023/07/10 10:51:10;;;;;;;;;;;21.80;99.90;;;;;;4592503;19;20288;-25
2023/07/10 10:52:41;;;;;;;;;;;21.80;99.90;;;;;;4592770;19;19918;-24
2023/07/10 10:54:20;;;;;;;;;;;21.80;99.90;;;;;;4592882;19;19990;-24
2023/07/10 10:56:10;;;;;;;;;;;21.80;99.90;;;;;;4592547;19;20249;-26
2023/07/10 10:58:04;;;;;;;;;;;21.80;99.90;;;;;;4592183;19;19917;-27
2023/07/10 10:59:44;;;;;;;;;;;21.80;99.90;;;;;;4593874;19;19918;-24
2023/07/10 11:01:31;;;;;;;;;;;21.80;99.90;;;;;;4594548;19;20008;-30
2023/07/10 11:03:02;;;;;;;;;;;21.80;99.90;;;;;;4593343;19;19966;-30
2023/07/10 11:04:39;;;;;;;;;;;21.80;99.90;;;;;;4594961;19;19922;-27
2023/07/10 11:06:16;;;;;;;;;;;21.80;99.90;;;;;;4594409;19;19923;-24
2023/07/10 11:07:49;;;;;;;;;;;21.80;99.90;;;;;;4593301;19;19974;-27
2023/07/10 11:09:26;;;;;;;;;;;21.80;99.90;;;;;;4593730;19;19918;-25
2023/07/10 11:10:58;;;;;;;;;;;21.80;99.90;;;;;;4594821;19;19948;-28
2023/07/10 11:12:30;;;;;;;;;;;21.80;99.90;;;;;;4592988;19;19978;-28
2023/07/10 11:14:03;;;;;;;;;;;21.80;99.90;;;;;;4593302;19;19926;-25
2023/07/10 11:15:36;;;;;;;;;;;21.90;99.90;;;;;;4593114;19;20009;-24
2023/07/10 11:17:10;;;;;;;;;;;21.80;99.90;;;;;;4593672;19;20240;-29
2023/07/10 11:18:42;;;;;;;;;;;21.80;99.90;;;;;;4592968;19;19918;-26
2023/07/10 11:20:13;;;;;;;;;;;21.80;99.90;;;;;;4593262;19;19927;-27
2023/07/10 11:21:44;;;;;;;;;;;21.80;99.90;;;;;;4592630;19;20346;-25
2023/07/10 11:23:27;;;;;;;;;;;21.80;99.90;;;;;;4592933;19;20014;-24
2023/07/10 11:25:01;;;;;;;;;;;21.80;99.90;;;;;;4592632;19;19915;-25
2023/07/10 11:26:32;;;;;;;;;;;21.90;99.90;;;;;;4592666;19;19990;-25
2023/07/10 11:28:22;;;;;;;;;;;21.90;99.90;;;;;;4590520;19;20408;-30
2023/07/10 11:30:01;;;;;;;;;;;21.90;99.90;;;;;;4595958;19;19938;-24
2023/07/10 11:31:47;;;;;;;;;;;21.90;99.90;;;;;;4593947;19;19919;-25
2023/07/10 11:33:27;;;;;;;;;;;21.90;99.90;;;;;;4591770;19;19930;-26
2023/07/10 11:35:20;;;;;;;;;;;21.90;99.90;;;;;;4591924;19;19986;-25
2023/07/10 11:36:58;;;;;;;;;;;21.90;99.90;;;;;;4591786;19;20343;-22
2023/07/10 11:38:45;;;;;;;;;;;21.90;99.90;;;;;;4591953;19;19929;-24
2023/07/10 11:40:29;;;;;;;;;;;21.90;99.90;;;;;;4591101;19;19915;-24
2023/07/10 11:42:15;;;;;;;;;;;21.90;99.90;;;;;;4591753;19;20260;-27
2023/07/10 11:44:14;;;;;;;;;;;21.90;99.90;;;;;;4591188;19;19947;-29
2023/07/10 11:45:55;;;;;;;;;;;22.00;99.90;;;;;;4590889;19;20731;-25
2023/07/10 11:47:34;;;;;;;;;;;22.00;99.90;;;;;;4590279;19;19948;-28
2023/07/10 11:49:15;;;;;;;;;;;22.00;99.90;;;;;;4590907;19;19967;-29
2023/07/10 11:50:49;;;;;;;;;;;22.00;99.90;;;;;;4588769;19;20264;-24
2023/07/10 11:52:29;;;;;;;;;;;22.00;99.90;;;;;;4591151;19;19914;-30
2023/07/10 11:54:08;;;;;;;;;;;22.00;99.90;;;;;;4590679;19;19921;-24
2023/07/10 11:56:02;;;;;;;;;;;22.00;99.90;;;;;;4590501;19;19922;-25
2023/07/10 11:58:01;;;;;;;;;;;22.00;99.90;;;;;;4590593;19;19919;-29
2023/07/10 12:00:00;;;;;;;;;;;22.00;99.90;;;;;;4590527;19;19918;-25
2023/07/10 12:01:32;;;;;;;;;;;22.00;99.90;;;;;;4590692;19;19925;-28
2023/07/10 12:03:03;;;;;;;;;;;22.00;99.90;;;;;;4591469;19;19926;-28
2023/07/10 12:04:36;;;;;;;;;;;22.10;99.90;;;;;;4590409;19;20019;-24
2023/07/10 12:06:20;;;;;;;;;;;22.10;99.90;;;;;;4590439;19;19915;-25
2023/07/10 12:07:58;;;;;;;;;;;22.10;99.90;;;;;;4590068;19;19919;-25
2023/07/10 12:09:30;;;;;;;;;;;22.00;99.90;;;;;;4590187;19;19919;-25
2023/07/10 12:11:01;;;;;;;;;;;22.10;99.90;;;;;;4590643;19;19979;-28
2023/07/10 12:12:52;;;;;;;;;;;22.10;99.90;;;;;;4589910;19;19941;-24
2023/07/10 12:14:26;;;;;;;;;;;22.10;99.90;;;;;;4591008;19;19926;-28
2023/07/10 12:15:58;;;;;;;;;;;22.10;99.90;;;;;;4590675;19;19927;-25
2023/07/10 12:17:30;;;;;;;;;;;22.10;99.90;;;;;;4591653;19;19914;-24
2023/07/10 12:19:02;;;;;;;;;;;22.10;99.90;;;;;;4589862;19;19922;-30
2023/07/10 12:20:35;;;;;;;;;;;22.10;99.90;;;;;;4590637;19;19918;-30
2023/07/10 12:22:21;;;;;;;;;;;22.10;99.90;;;;;;4589900;19;19915;-28
2023/07/10 12:23:58;;;;;;;;;;;22.00;99.90;;;;;;4590438;19;19914;-25
2023/07/10 12:25:29;;;;;;;;;;;22.10;99.90;;;;;;4590577;19;19915;-27
2023/07/10 12:27:01;;;;;;;;;;;22.10;99.90;;;;;;4590394;19;19922;-27
2023/07/10 12:28:32;;;;;;;;;;;22.10;99.90;;;;;;4589253;19;19919;-25
2023/07/10 12:30:12;;;;;;;;;;;22.10;99.90;;;;;;4592136;19;19940;-24
2023/07/10 12:31:43;;;;;;;;;;;22.10;99.90;;;;;;4590757;19;19919;-27
2023/07/10 12:33:31;;;;;;;;;;;22.10;99.90;;;;;;4590319;19;19915;-25
2023/07/10 12:35:01;;;;;;;;;;;22.10;99.90;;;;;;4590266;19;19919;-24
2023/07/10 12:36:41;;;;;;;;;;;22.10;99.90;;;;;;4589979;19;20281;-24
2023/07/10 12:38:15;;;;;;;;;;;22.10;99.90;;;;;;4589972;19;19935;-25
2023/07/10 12:39:48;;;;;;;;;;;22.10;99.90;;;;;;4590577;19;19911;-29
2023/07/10 12:41:22;;;;;;;;;;;22.10;99.90;;;;;;4590855;19;20245;-30
2023/07/10 12:42:54;;;;;;;;;;;22.10;99.90;;;;;;4590300;19;19941;-29
2023/07/10 12:44:29;;;;;;;;;;;22.10;99.90;;;;;;4590746;19;19918;-25
2023/07/10 12:46:01;;;;;;;;;;;22.10;99.90;;;;;;4590407;19;19940;-28